Carmel, IN (46082)

8:29 AM EST on December 29, 2014 (GMT -0500)
Johnsons Block | Change Station
CLOSE
Current Station
Personal Weather Station
Location: Carmel, IN
Elevation: 853 ft
Nearby Weather Stations

Elev 853 ft 39.98 °N, 86.13 °W | Updated 3 minutes ago

Clear
Clear
17.8 °F
Feels Like 18 °F
N
0.0
Wind Variable Wind from WNW

Today
High -- | Low -- °F
--% Chance of Precip.
Yesterday
High -- | Low -- °F
Precip. -- in
8:05 AM 5:27 PM
First Quarter, 59% visible
Pressure 30.28 in
Visibility 4.0 miles
Clouds Clear
Windchill 18 °F
Dew Point 18 °F
Humidity 99%
Rainfall 0.00 in
Snow Depth Not available.
UV 0 out of 12
Pollen .10 out of 12
Air Quality Not available.
Flu Activity Not available.
METAR KTYQ 291315Z AUTO 00000KT 4SM BR CLR M06/M08 A3028 RMK AO2 T10601076

More Conditions Fewer Conditions

Pressure 30.28 in
Visibility 4.0 miles
Clouds Clear
Windchill 18 °F
Dew Point 18 °F
Humidity 99%
Rainfall 0.00 in
Snow Depth Not available.
UV 0 out of 12
Pollen .10 out of 12
Air Quality Not available.
Flu Activity Not available.
METAR KTYQ 291315Z AUTO 00000KT 4SM BR CLR M06/M08 A3028 RMK AO2 T10601076

More Conditions Fewer Conditions

10-Day Weather Forecast

Almanac

Astronomy

Dec. 29, 2014 Rise Set
Actual Time
Civil Twilight
Nautical Twilight
Astronomical Twilight
Moon
Length of Visible Light
Length of Day
Tomorrow will be .
, % of the Moon is Illuminated

Today's Extremes

State Highs State Lows

Community

WunderPhotos

Upload Photos

1,781,579 photos uploaded!

WunderBlogs® & News

Nearby

Air Quality

  Air Quality AQ Index Pollutant
Not available.

Snow Depth

Station Depth Elevation

Earthquake Activity

City Distance Mag. Time & Date
Minimum magnitude displayed is 2.5.

Coastal Water Temperatures

Place Temperature

Nearby Weather Stations